NWS Home NWS Lubbock West Texas Mesonet Day over Day changes as of 0608 AM, Wed Dec 02, 2020

Latest   N   C   S   Daily Sum   3hrΔ   24hrΔ   Soil Data 
Site Map   24hr Precip   72hr Precip   Google Plot


Station Time of Last Temp Today Temp Yesterday Delta-T Dewpoint Today Dewpoint Yesterday Delta-Td Delta-Pressure (mB)
Reese Center  06:00 AM 33.4 26.5 6.9 24.8 10.5 14.3 4.8
Abernathy  06:00 AM 29.9 26.5 3.5 21.4 13.7 7.7 4.5
Plainview  06:00 AM 34.8 29.5 5.3 21.6 14.4 7.2 5.7
Tahoka  06:00 AM 35.1 28 7.1 20.7 3.8 16.9 3.7
Slaton  06:00 AM 35.1 32.6 2.6 20.2 5.9 14.4 4
Levelland  06:00 AM 33.3 30.1 3.2 24.4 10.1 14.3 5.4
Roaring Springs  06:00 AM 36.6 35.4 1.2 24.6 11.6 13 3.3
Floydada  06:00 AM 34.7 31.1 3.6 19.7 7.7 12 4.3
Ralls  06:00 AM 34.1 31.5 2.7 18.4 4.6 13.8 3.6
Brownfield  06:00 AM 35.3 29.2 6.1 24.3 4.9 19.4 4.6
Muleshoe  06:00 AM 33.1 31.3 1.9 26.8 15.4 11.3 7.2
Morton  06:00 AM 32.2 38.3 -6.1 24 12.7 11.3 6.4
Comanche Springs  06:00 AM 37.9 37.6 0.3 28.1 15.8 12.3 0.8
O'Donnell  06:00 AM 34.4 30.5 3.9 22.1 6.2 15.9 3.3
Seagraves  06:00 AM 34.3 27.2 7 25.6 4.4 21.1 4.5
Amherst  06:00 AM 32.9 30.5 2.5 25.5 15.3 10.1 6
Plains  06:00 AM 32.9 30.7 2.2 24.7 10.6 14 5.5
Lamesa  06:00 AM 36.1 30.4 5.7 23.4 11.3 12 2.6
Hart  06:00 AM 32.8 24.3 8.5 26 17.7 8.3 6.2
Friona  06:00 AM 31.8 28.3 3.4 25.2 15.5 9.7 7.4
Dimmitt  06:00 AM 31.7 29.8 1.9 25.5 15.9 9.6 7.2
Tulia  06:00 AM 34.2 28.8 5.4 23.4 16.5 6.9 6.7
Silverton  06:00 AM 34.9 29.9 5 22.5 15.1 7.4 6.3
Post  06:00 AM 36.6 35.9 0.7 20.4 6.5 13.8 3.2
Seminole  06:00 AM 35 29.9 5.1 24.6 2.9 21.7 4.4
Gail  06:00 AM 38 34.4 3.6 20.3 11.2 9.1 1.7
White River Lake  06:00 AM 36.9 34.6 2.4 20.2 5.4 14.8 2.6
Graham  06:00 AM 35.7 35.1 0.6 19.8 5.1 14.7 2.5
Sundown  06:00 AM 32.7 29.8 2.9 24.2 8.6 15.6 5.4
Anton  06:00 AM 33 32.5 0.5 24.8 13.4 11.4 5.4
Fluvanna  06:00 AM 37.1 34.4 2.7 20.7 10.5 10.2 1.4
Spur  06:00 AM 39.6 29.7 9.9 22 15.5 6.5 1.6
Northwest Lubbock  06:00 AM 34.1 33 1.1 25.4 8.4 17 4.8
Guthrie  06:00 AM 39.4 34 5.4 21.9 13.8 8.2 1
Clarendon  06:00 AM 35.8 27.9 7.9 24.2 16.7 7.6 6.2
Paducah  06:00 AM 38 40.4 -2.4 24.7 9.1 15.5 2.2
Snyder  06:00 AM 37.8 29.1 8.6 22.6 16.7 5.9 0.6
Memphis  06:00 AM 38.5 25.9 12.6 24.2 17.4 6.7 4.5
Jayton  06:00 AM 40.3 36.1 4.2 23.5 15 8.5 1.1
Pampa  06:00 AM 33.2 28.3 4.9 25.1 17.9 7.1 7
Aspermont  06:00 AM 39.3 37.9 1.5 26.2 16.4 9.8 0.6
Hereford  06:00 AM 31.7 26.7 5 26 16.6 9.4 7.8
Goodlett  06:00 AM 37.3 29.5 7.7 28.1 21.9 6.2 1.8
McLean  06:00 AM 34.1 30.5 3.6 24.8 19.3 5.6 6.3
Denver City  06:00 AM 33.5 31.1 2.4 24.6 10.4 14.2 5
Lake Alan Henry  06:00 AM 37.9 37.8 0.1 21.6 9.5 12.1 2.1
Wolfforth  06:00 AM 33.3 26.9 6.4 24.3 6.2 18.2 4.9
Andrews  06:00 AM 35.1 34.8 0.3 22.5 -1.7 24.2 3.4
Turkey  06:00 AM 37.7 35.9 1.8 22.4 11.2 11.2 4.9
Childress  06:00 AM 38.7 34.5 4.2 24.7 15.8 8.9 3
Tatum  06:00 AM 31.9 35.7 -3.8 22.6 11 11.6 6
Northfield  06:00 AM 38.9 39.2 -0.4 21.9 7.8 14.1 4.2
Dora  06:00 AM 28.6 31.6 -2.9 22.2 11.6 10.5 6.9
Northwest San Angelo  06:00 AM 35 25.8 9.2 25 17.2 7.8 -1.3
Saint Lawrence  06:00 AM 36.5 33.7 2.9 19.5 6.7 12.8 1
Haskell  06:00 AM 36.6 32.3 4.3 29 22.7 6.3 -0.7
Wall  06:00 AM 36.2 37 -0.8 24 15.5 8.5 -1
Seymour  06:00 AM 33.8 31 2.8 28.7 24.5 4.2 -1.6
Knox City  06:00 AM 39.2 34.3 4.9 28 21.8 6.2 -0.2
Guadalupe Mtns Park  06:00 AM 28.5 40.7 -12.2 18.4 20.9 -2.5 3.4
Caprock Canyons   06:00 AM 37.4 36.5 1 22.1 10.5 11.6 5.6
Odell  06:00 AM 31.6 31.5 0 27.6 22.9 4.7 -0.3
Coyanosa  06:00 AM 37.8 27.4 10.4 15 4.6 10.5 3.7
Big Lake  06:00 AM 35.4 34.2 1.2 20.5 7.6 12.9 -0.1
Junction  06:00 AM 28.4 19.6 8.8 27.5 18 9.5 -3.7
Hobbs  06:00 AM 33.5 31.8 1.7 22.3 5.9 16.4 5.1
Canadian  06:00 AM 35.7 32.4 3.2 26.5 19 7.5 7
Palo Duro Canyon State Park Rim  06:00 AM 33.9 30.3 3.6 22.7 14.6 8 7.2
Bootleg  06:00 AM 28.5 26.8 1.6 26.9 14.6 12.3 8.1
Sterling City  06:00 AM 37.6 39.1 -1.5 20.1 4.6 15.5 0.5
Mertzon  06:00 AM 39.2 33.7 5.5 22.6 11.4 11.3 -0.7
Persimmon Gap  06:00 AM 45.6 30.3 15.3 12.8 -4.6 17.4 -1.2
Weinert  06:00 AM 36.9 32.3 4.6 28.3 22 6.3 -0.9
Claude 12 Southwest  06:00 AM 33 33.5 -0.5 23.6 14.8 8.8 6.6
Amarillo 7 South Southeast  06:00 AM 33.7 25 8.7 23.4 14.7 8.7 7.3
Umbarger  06:00 AM 33.2 25.9 7.2 24.1 16.1 8.1 7.7
Lomax  06:00 AM 35 33.9 1.1 18.2 7.9 10.3 2.1
Amarillo 9 North Northeast  06:00 AM 34.7 27.1 7.6 24.5 16.7 7.8 8
Aiken  06:00 AM 33.9 23.5 10.4 21.5 14.1 7.4 5.2
Sweetwater  06:00 AM 35.1 36.6 -1.4 23.7 10.1 13.6 0
Dozier  06:00 AM 37.4 28.6 8.9 25.7 21.2 4.5 5.4
Amarillo 15 North Northwest  06:00 AM 35.3 24.5 10.8 24 15.9 8.1 8.8
Menard  06:00 AM 32.6 19.3 13.2 26.5 17.1 9.4 -2.7
Tarzan  06:00 AM 37 33 4 21.8 7.5 14.3 2.1
Goodnight  06:00 AM 34.2 30.7 3.4 23.4 15.9 7.5 6.7
Boys Ranch   06:00 AM 34.9 18.6 16.3 26.9 17.1 9.8 9.4
Fort McKavett  06:00 AM 34 33.6 0.4 24.6 17 7.6 -2
Fort Chadbourne  06:00 AM 38.8 29.3 9.6 27.5 14.6 12.9 -1.2
Palo Duro Canyon State Park Floor  06:00 AM 37 32.6 4.4 24.5 16.1 8.4 7.5
Fort Lancaster  06:00 AM 41.4 37.4 4 21.8 11.6 10.2 -0.3
Dell City 1N  06:00 AM 36.6 24.7 11.9 22.6 15.6 7 2.3
Clyde  06:00 AM 37 41.6 -4.5 26.8 13.1 13.6 -1.2
Snyder SSW  06:00 AM 38.4 30.2 8.1 22.2 15.8 6.4 0.8
Panhandle  06:00 AM 33.2 25.8 7.4 24.6 17.4 7.2 7.4
Vigo Park  06:00 AM 34.4 28.8 5.7 23.6 17.3 6.3 6.6
Welch  06:00 AM 34.8 28 6.8 24.7 4.5 20.2 3.9
Throckmorton  06:00 AM 36.8 29.6 7.2 30.8 18.3 12.5 -1.9
Sierra Blanca  06:00 AM 31.6 35.5 -3.9 14 22.3 -8.3 1.7
Fort Lewis CO  06:00 AM 19.3 24.9 -5.7 2.3 11.6 -9.3 1.4
New Home  06:00 AM 33.9 28.1 5.8 23.9 4.2 19.7 4.3
McCamey  06:00 AM 33.6 36.3 -2.8 16 7 9 2.2
Stamford  06:00 AM 36.8 33.4 3.3 29 22.2 6.8 -0.6
Crowell  06:00 AM 36.6 35.9 0.8 28.7 20.8 7.9 0.1
Stinnett  06:00 AM 33.8 26.5 7.3 24.7 17.4 7.3 8.3
Colorado City  06:00 AM 36.3 30.8 5.5 23.9 15.7 8.1 0.6
Happy  06:00 AM 34.4 27.3 7.2 24.5 16.4 8.1 6.8
Endee  06:00 AM 31.6 22.1 9.5 26.8 15 11.8 8.9
JA Ranch  06:00 AM 37.4 32.3 5.1 23.9 16.9 7 6.3
Adrian  06:00 AM 30.2 34.5 -4.4 25.4 15.5 9.9 8.6
Lesley  06:00 AM 39.3 37.5 1.8 23.3 15.3 8 5.9
Earth  06:00 AM 33.1 32.5 0.6 25.8 14.6 11.2 6.9
Van Horn  06:00 AM 36.4 29.8 6.6 17.4 13.3 4.1 2.2
Rotan  06:00 AM 38.9 37.4 1.5 24.1 14.6 9.5 1
Fritch  06:00 AM 35.7 29.5 6.2 25.3 16.6 8.6 8.4
Estelline  06:00 AM 39.8 39 0.8 23.9 11.5 12.5 4.5
Crane  06:00 AM 39.7 42.3 -2.6 18.1 3.5 14.6 2.6
Hackberry  06:00 AM 38.4 36.6 1.8 26.7 17 9.7 1.8
Romero 11SSW  06:00 AM 32.4 25.3 7.1 25.2 16.2 9.1 9.4
Palo Duro Reservoir 1NW  06:00 AM 34.8 22.8 12 24.9 18.8 6.1 8.6
South Plains 3ENE  06:00 AM 34.5 28.6 6 21.1 12.7 8.5 5.4
Lake McClellan 2NW  06:00 AM 33.9 29.5 4.4 24.1 17.9 6.2 6.7
Segovia 7SSW  06:00 AM 43.6 36.6 6.9 41.5 19.4 22.1 -4.1
Castolon 1NW BBNP  06:00 AM 47.3 34.4 13 14.3 12.1 2.3 -2.4
Smyer  06:00 AM 33.5 27.8 5.7 24.6 8.5 16 5.1
Doole 3WNW  06:00 AM 37.9 27.2 10.7 26 18.7 7.3 -2.4
Stratford  06:00 AM 30.7 20.5 10.2 25.8 15.3 10.6 9.5
Truscott  06:00 AM 37.9 31.2 6.6 28.6 22.7 5.9 -0.5
Hefner  06:00 AM 36.4 33 3.3 28.7 24.3 4.4 -1.2
Kent I10-I20 Split  06:00 AM 35 38.9 -3.9 16.7 22.2 -5.5 4.5
Olton  06:00 AM 32.5 27.4 5.2 25.4 16 9.4 6
McAdoo  06:00 AM 35.3 33.7 1.6 21.3 8.3 13 3.3
Borger  06:00 AM 34.8 26.4 8.4 25.1 17.6 7.4 8.3
Vega  06:00 AM 31.5 25.2 6.3 26.3 17.2 9.1 8.4

West Texas Mesonet Home   Site Map/Menu  NWS Lubbock Soil Data  Daily Summary Page  24hr Precip  72hr Precip  Google Plot